This is the latest recevied weather packets stored in our database for station/object HJ3DAG-13. If no packets are shown the sender has not sent any weather packets the latest 10 day(s).
| Time | Temp. | Humidity | Pressure | Rain* | Wind** | Luminosity | Snow |
|---|---|---|---|---|---|---|---|
| 1778102072 | 16.11° C | 85% | 1013 hPa | 0 mm | - | - | - |
| 1778101850 | 16.11° C | 85% | 1013 hPa | 0 mm | - | - | - |
| 1778101472 | 16.11° C | 85% | 1013 hPa | 0 mm | - | - | - |
| 1778101250 | 16.11° C | 85% | 1013 hPa | 0 mm | - | - | - |
| 1778100872 | 16.11° C | 85% | 1013 hPa | 0 mm | - | - | - |
| 1778100650 | 16.67° C | 85% | 1013 hPa | 0 mm | - | - | - |
| 1778100272 | 17.22° C | 85% | 1013 hPa | 0 mm | - | - | - |
| 1778100050 | 17.22° C | 85% | 1013 hPa | 0 mm | - | - | - |
| 1778099451 | 16.67° C | 85% | 1013 hPa | 0 mm | - | - | - |
| 1778099072 | 16.11° C | 85% | 1014 hPa | 0 mm | - | - | - |
| 1778098850 | 16.11° C | 85% | 1014 hPa | 0 mm | - | - | - |
| 1778098250 | 16.11° C | 85% | 1013 hPa | 0 mm | - | - | - |
| 1778097873 | 16.67° C | 84% | 1013 hPa | 0 mm | - | - | - |
| 1778097650 | 16.67° C | 84% | 1013 hPa | 0 mm | - | - | - |
| 1778097272 | 16.67° C | 83% | 1013 hPa | 0.25 mm | - | - | - |
| 1778097052 | 17.22° C | 80% | 1013 hPa | 0.25 mm | - | - | - |
| 1778096673 | 17.78° C | 74% | 1014 hPa | 0.25 mm | - | - | - |
| 1778096453 | 17.78° C | 74% | 1014 hPa | 0.25 mm | - | - | - |
| 1778096072 | 17.78° C | 75% | 1014 hPa | 0.25 mm | - | - | - |
| 1778095851 | 17.78° C | 82% | 1014 hPa | 0.25 mm | - | - | - |
| 1778095472 | 18.33° C | 77% | 1015 hPa | 0.25 mm | - | - | - |
| 1778095250 | 17.78° C | 80% | 1015 hPa | 0.25 mm | - | - | - |
| 1778094872 | 16.67° C | 88% | 1015 hPa | 0.25 mm | - | - | - |
| 1778094655 | 16.67° C | 88% | 1015 hPa | 0.25 mm | - | - | - |
| 1778094272 | 16.11° C | 88% | 1015 hPa | 0 mm | - | - | - |
* Rain latest hour (hover to see other rain measurements)
** Current wind speed in m/s (hover to see current wind gust speed)